sensor_id;sensor_type;location;lat;lon;timestamp;P1;durP1;ratioP1;P2;durP2;ratioP2
66751;SDS011;53663;42.676;23.238;2023-01-10T00:01:35;31.38;;;14.05;;
66751;SDS011;53663;42.676;23.238;2023-01-10T00:04:01;32.13;;;13.63;;
66751;SDS011;53663;42.676;23.238;2023-01-10T00:06:27;26.45;;;12.52;;
66751;SDS011;53663;42.676;23.238;2023-01-10T00:08:53;27.95;;;13.50;;
66751;SDS011;53663;42.676;23.238;2023-01-10T00:11:18;26.67;;;13.57;;
66751;SDS011;53663;42.676;23.238;2023-01-10T00:14:02;35.50;;;15.30;;
66751;SDS011;53663;42.676;23.238;2023-01-10T00:16:28;31.45;;;13.63;;
66751;SDS011;53663;42.676;23.238;2023-01-10T00:18:53;32.83;;;14.23;;
66751;SDS011;53663;42.676;23.238;2023-01-10T00:21:19;30.58;;;14.98;;
66751;SDS011;53663;42.676;23.238;2023-01-10T00:23:44;40.90;;;17.13;;
66751;SDS011;53663;42.676;23.238;2023-01-10T00:26:10;29.58;;;14.00;;
66751;SDS011;53663;42.676;23.238;2023-01-10T00:28:36;30.33;;;14.40;;
66751;SDS011;53663;42.676;23.238;2023-01-10T00:31:03;32.00;;;16.00;;
66751;SDS011;53663;42.676;23.238;2023-01-10T00:33:31;28.52;;;14.57;;
66751;SDS011;53663;42.676;23.238;2023-01-10T00:36:00;29.77;;;14.65;;
66751;SDS011;53663;42.676;23.238;2023-01-10T00:38:28;25.58;;;12.75;;
66751;SDS011;53663;42.676;23.238;2023-01-10T00:40:55;33.13;;;14.40;;
66751;SDS011;53663;42.676;23.238;2023-01-10T00:43:21;30.30;;;13.02;;
66751;SDS011;53663;42.676;23.238;2023-01-10T00:46:06;30.98;;;14.13;;
66751;SDS011;53663;42.676;23.238;2023-01-10T00:48:32;32.10;;;16.08;;
66751;SDS011;53663;42.676;23.238;2023-01-10T00:50:57;29.25;;;12.43;;
66751;SDS011;53663;42.676;23.238;2023-01-10T00:53:23;28.55;;;13.65;;
66751;SDS011;53663;42.676;23.238;2023-01-10T00:55:48;28.85;;;14.80;;
66751;SDS011;53663;42.676;23.238;2023-01-10T00:58:14;18.98;;;10.02;;
66751;SDS011;53663;42.676;23.238;2023-01-10T01:00:40;23.80;;;12.23;;
66751;SDS011;53663;42.676;23.238;2023-01-10T01:03:07;29.17;;;12.93;;
66751;SDS011;53663;42.676;23.238;2023-01-10T01:05:33;25.80;;;13.10;;
66751;SDS011;53663;42.676;23.238;2023-01-10T01:08:03;33.78;;;14.50;;
66751;SDS011;53663;42.676;23.238;2023-01-10T01:10:29;28.05;;;14.00;;
66751;SDS011;53663;42.676;23.238;2023-01-10T01:12:56;24.90;;;11.18;;
66751;SDS011;53663;42.676;23.238;2023-01-10T01:15:23;28.52;;;13.23;;
66751;SDS011;53663;42.676;23.238;2023-01-10T01:17:49;31.63;;;12.32;;
66751;SDS011;53663;42.676;23.238;2023-01-10T01:20:15;27.92;;;12.43;;
66751;SDS011;53663;42.676;23.238;2023-01-10T01:22:40;27.23;;;12.68;;
66751;SDS011;53663;42.676;23.238;2023-01-10T01:25:06;28.75;;;13.43;;
66751;SDS011;53663;42.676;23.238;2023-01-10T01:27:32;27.77;;;13.10;;
66751;SDS011;53663;42.676;23.238;2023-01-10T01:29:59;19.33;;;9.57;;
66751;SDS011;53663;42.676;23.238;2023-01-10T01:32:25;28.20;;;13.30;;
66751;SDS011;53663;42.676;23.238;2023-01-10T01:34:51;29.70;;;15.27;;
66751;SDS011;53663;42.676;23.238;2023-01-10T01:37:16;29.10;;;12.85;;
66751;SDS011;53663;42.676;23.238;2023-01-10T01:39:44;16.70;;;9.05;;
66751;SDS011;53663;42.676;23.238;2023-01-10T01:42:22;25.90;;;12.27;;
66751;SDS011;53663;42.676;23.238;2023-01-10T01:52:57;24.85;;;12.65;;
66751;SDS011;53663;42.676;23.238;2023-01-10T01:55:27;25.42;;;13.65;;
66751;SDS011;53663;42.676;23.238;2023-01-10T01:57:57;26.42;;;12.98;;
66751;SDS011;53663;42.676;23.238;2023-01-10T02:00:24;28.15;;;13.60;;
66751;SDS011;53663;42.676;23.238;2023-01-10T02:02:51;29.88;;;14.25;;
66751;SDS011;53663;42.676;23.238;2023-01-10T02:05:20;28.35;;;13.95;;
66751;SDS011;53663;42.676;23.238;2023-01-10T02:07:49;25.75;;;13.65;;
66751;SDS011;53663;42.676;23.238;2023-01-10T02:10:20;27.77;;;13.52;;
66751;SDS011;53663;42.676;23.238;2023-01-10T02:12:50;27.08;;;13.52;;
66751;SDS011;53663;42.676;23.238;2023-01-10T02:15:18;31.35;;;14.18;;
66751;SDS011;53663;42.676;23.238;2023-01-10T02:17:48;24.40;;;13.07;;
66751;SDS011;53663;42.676;23.238;2023-01-10T02:33:22;22.70;;;12.07;;
66751;SDS011;53663;42.676;23.238;2023-01-10T02:36:43;22.00;;;11.82;;
66751;SDS011;53663;42.676;23.238;2023-01-10T02:43:56;23.42;;;11.93;;
66751;SDS011;53663;42.676;23.238;2023-01-10T02:46:29;25.27;;;12.20;;
66751;SDS011;53663;42.676;23.238;2023-01-10T02:48:56;24.45;;;12.25;;
66751;SDS011;53663;42.676;23.238;2023-01-10T02:51:22;23.20;;;12.30;;
66751;SDS011;53663;42.676;23.238;2023-01-10T03:14:49;22.58;;;11.55;;
66751;SDS011;53663;42.676;23.238;2023-01-10T03:17:15;24.58;;;12.15;;
66751;SDS011;53663;42.676;23.238;2023-01-10T03:19:45;26.38;;;14.40;;
66751;SDS011;53663;42.676;23.238;2023-01-10T03:22:13;28.17;;;12.80;;
66751;SDS011;53663;42.676;23.238;2023-01-10T03:24:39;25.63;;;13.90;;
66751;SDS011;53663;42.676;23.238;2023-01-10T03:27:11;26.90;;;14.80;;
66751;SDS011;53663;42.676;23.238;2023-01-10T03:29:49;27.88;;;12.15;;
66751;SDS011;53663;42.676;23.238;2023-01-10T03:32:24;25.13;;;13.38;;
66751;SDS011;53663;42.676;23.238;2023-01-10T03:34:52;28.08;;;13.80;;
66751;SDS011;53663;42.676;23.238;2023-01-10T03:37:31;26.55;;;14.43;;
66751;SDS011;53663;42.676;23.238;2023-01-10T03:45:37;21.83;;;12.13;;
66751;SDS011;53663;42.676;23.238;2023-01-10T03:48:07;24.38;;;11.93;;
66751;SDS011;53663;42.676;23.238;2023-01-10T03:50:35;25.55;;;12.65;;
66751;SDS011;53663;42.676;23.238;2023-01-10T03:53:02;25.50;;;13.10;;
66751;SDS011;53663;42.676;23.238;2023-01-10T03:55:29;23.80;;;12.95;;
66751;SDS011;53663;42.676;23.238;2023-01-10T03:57:55;25.58;;;12.50;;
66751;SDS011;53663;42.676;23.238;2023-01-10T04:00:21;25.23;;;13.85;;
66751;SDS011;53663;42.676;23.238;2023-01-10T04:02:46;23.08;;;12.60;;
66751;SDS011;53663;42.676;23.238;2023-01-10T04:05:12;20.42;;;11.38;;
66751;SDS011;53663;42.676;23.238;2023-01-10T04:07:38;22.88;;;11.68;;
66751;SDS011;53663;42.676;23.238;2023-01-10T04:10:04;27.67;;;14.00;;
66751;SDS011;53663;42.676;23.238;2023-01-10T04:12:30;24.58;;;11.88;;
66751;SDS011;53663;42.676;23.238;2023-01-10T04:14:56;24.77;;;12.27;;
66751;SDS011;53663;42.676;23.238;2023-01-10T04:17:22;24.30;;;12.93;;
66751;SDS011;53663;42.676;23.238;2023-01-10T04:19:47;26.20;;;13.57;;
66751;SDS011;53663;42.676;23.238;2023-01-10T04:22:13;22.55;;;12.35;;
66751;SDS011;53663;42.676;23.238;2023-01-10T04:24:38;27.85;;;14.80;;
66751;SDS011;53663;42.676;23.238;2023-01-10T04:27:04;31.67;;;13.95;;
66751;SDS011;53663;42.676;23.238;2023-01-10T04:29:30;26.90;;;12.40;;
66751;SDS011;53663;42.676;23.238;2023-01-10T04:31:55;28.33;;;14.25;;
66751;SDS011;53663;42.676;23.238;2023-01-10T04:34:21;26.95;;;14.18;;
66751;SDS011;53663;42.676;23.238;2023-01-10T04:36:47;23.77;;;11.70;;
66751;SDS011;53663;42.676;23.238;2023-01-10T04:39:13;26.65;;;12.48;;
66751;SDS011;53663;42.676;23.238;2023-01-10T04:41:40;21.70;;;10.65;;
66751;SDS011;53663;42.676;23.238;2023-01-10T04:44:05;23.67;;;12.13;;
66751;SDS011;53663;42.676;23.238;2023-01-10T04:46:31;21.70;;;10.93;;
66751;SDS011;53663;42.676;23.238;2023-01-10T04:48:56;20.58;;;10.90;;
66751;SDS011;53663;42.676;23.238;2023-01-10T04:51:25;22.10;;;11.73;;
66751;SDS011;53663;42.676;23.238;2023-01-10T04:53:52;20.10;;;11.50;;
66751;SDS011;53663;42.676;23.238;2023-01-10T04:56:18;25.50;;;12.48;;
66751;SDS011;53663;42.676;23.238;2023-01-10T04:58:45;23.27;;;12.65;;
66751;SDS011;53663;42.676;23.238;2023-01-10T05:01:12;20.80;;;11.75;;
66751;SDS011;53663;42.676;23.238;2023-01-10T05:03:40;22.27;;;11.82;;
66751;SDS011;53663;42.676;23.238;2023-01-10T05:06:06;24.45;;;12.27;;
66751;SDS011;53663;42.676;23.238;2023-01-10T05:08:32;24.70;;;11.73;;
66751;SDS011;53663;42.676;23.238;2023-01-10T05:10:58;22.17;;;11.55;;
66751;SDS011;53663;42.676;23.238;2023-01-10T05:13:23;29.60;;;13.35;;
66751;SDS011;53663;42.676;23.238;2023-01-10T05:15:56;21.25;;;12.13;;
66751;SDS011;53663;42.676;23.238;2023-01-10T05:18:26;22.92;;;11.00;;
66751;SDS011;53663;42.676;23.238;2023-01-10T05:20:52;29.27;;;12.65;;
66751;SDS011;53663;42.676;23.238;2023-01-10T05:25:49;20.35;;;10.75;;
66751;SDS011;53663;42.676;23.238;2023-01-10T05:28:14;19.30;;;10.98;;
66751;SDS011;53663;42.676;23.238;2023-01-10T05:30:40;18.90;;;11.40;;
66751;SDS011;53663;42.676;23.238;2023-01-10T05:33:05;20.60;;;11.07;;
66751;SDS011;53663;42.676;23.238;2023-01-10T05:35:31;21.08;;;11.38;;
66751;SDS011;53663;42.676;23.238;2023-01-10T05:37:56;22.83;;;12.10;;
66751;SDS011;53663;42.676;23.238;2023-01-10T05:40:22;29.33;;;15.48;;
66751;SDS011;53663;42.676;23.238;2023-01-10T05:42:47;26.83;;;13.90;;
66751;SDS011;53663;42.676;23.238;2023-01-10T05:45:13;28.38;;;15.07;;
66751;SDS011;53663;42.676;23.238;2023-01-10T05:47:39;50.58;;;24.00;;
66751;SDS011;53663;42.676;23.238;2023-01-10T05:50:04;92.68;;;39.35;;
66751;SDS011;53663;42.676;23.238;2023-01-10T05:52:30;43.85;;;19.75;;
66751;SDS011;53663;42.676;23.238;2023-01-10T05:54:56;34.22;;;17.35;;
66751;SDS011;53663;42.676;23.238;2023-01-10T05:57:21;23.13;;;11.23;;
66751;SDS011;53663;42.676;23.238;2023-01-10T05:59:49;17.05;;;10.43;;
66751;SDS011;53663;42.676;23.238;2023-01-10T06:02:15;19.30;;;11.23;;
66751;SDS011;53663;42.676;23.238;2023-01-10T06:04:41;19.95;;;10.93;;
66751;SDS011;53663;42.676;23.238;2023-01-10T06:07:06;25.38;;;12.35;;
66751;SDS011;53663;42.676;23.238;2023-01-10T06:09:32;23.30;;;11.95;;
66751;SDS011;53663;42.676;23.238;2023-01-10T06:11:57;23.48;;;11.63;;
66751;SDS011;53663;42.676;23.238;2023-01-10T06:14:23;39.47;;;21.85;;
66751;SDS011;53663;42.676;23.238;2023-01-10T06:16:48;27.60;;;12.02;;
66751;SDS011;53663;42.676;23.238;2023-01-10T06:19:14;26.23;;;12.98;;
66751;SDS011;53663;42.676;23.238;2023-01-10T06:21:39;22.65;;;11.85;;
66751;SDS011;53663;42.676;23.238;2023-01-10T06:24:05;24.15;;;13.77;;
66751;SDS011;53663;42.676;23.238;2023-01-10T06:26:31;29.10;;;13.73;;
66751;SDS011;53663;42.676;23.238;2023-01-10T06:28:56;28.77;;;12.27;;
66751;SDS011;53663;42.676;23.238;2023-01-10T06:31:23;40.85;;;19.92;;
66751;SDS011;53663;42.676;23.238;2023-01-10T06:33:50;27.17;;;14.65;;
66751;SDS011;53663;42.676;23.238;2023-01-10T06:36:15;25.08;;;13.50;;
66751;SDS011;53663;42.676;23.238;2023-01-10T06:38:41;25.10;;;14.65;;
66751;SDS011;53663;42.676;23.238;2023-01-10T06:41:07;25.00;;;13.35;;
66751;SDS011;53663;42.676;23.238;2023-01-10T06:43:39;29.50;;;16.25;;
66751;SDS011;53663;42.676;23.238;2023-01-10T06:46:05;25.88;;;13.27;;
66751;SDS011;53663;42.676;23.238;2023-01-10T06:48:33;21.13;;;11.80;;
66751;SDS011;53663;42.676;23.238;2023-01-10T06:50:59;21.85;;;11.35;;
66751;SDS011;53663;42.676;23.238;2023-01-10T06:53:25;29.27;;;16.27;;
66751;SDS011;53663;42.676;23.238;2023-01-10T06:55:50;27.60;;;15.07;;
66751;SDS011;53663;42.676;23.238;2023-01-10T06:58:18;27.17;;;12.82;;
66751;SDS011;53663;42.676;23.238;2023-01-10T07:00:43;29.45;;;15.18;;
66751;SDS011;53663;42.676;23.238;2023-01-10T07:03:09;40.70;;;23.42;;
66751;SDS011;53663;42.676;23.238;2023-01-10T07:05:34;32.83;;;15.73;;
66751;SDS011;53663;42.676;23.238;2023-01-10T07:08:00;31.50;;;17.13;;
66751;SDS011;53663;42.676;23.238;2023-01-10T07:10:26;48.28;;;24.80;;
66751;SDS011;53663;42.676;23.238;2023-01-10T07:12:54;38.72;;;16.73;;
66751;SDS011;53663;42.676;23.238;2023-01-10T07:15:20;58.63;;;30.75;;
66751;SDS011;53663;42.676;23.238;2023-01-10T07:17:45;35.65;;;20.88;;
66751;SDS011;53663;42.676;23.238;2023-01-10T07:20:11;31.80;;;18.73;;
66751;SDS011;53663;42.676;23.238;2023-01-10T07:22:37;32.67;;;16.70;;
66751;SDS011;53663;42.676;23.238;2023-01-10T07:25:03;38.55;;;20.45;;
66751;SDS011;53663;42.676;23.238;2023-01-10T07:27:30;24.00;;;13.40;;
66751;SDS011;53663;42.676;23.238;2023-01-10T07:29:56;26.88;;;13.10;;
66751;SDS011;53663;42.676;23.238;2023-01-10T07:32:22;32.70;;;16.05;;
66751;SDS011;53663;42.676;23.238;2023-01-10T07:34:48;31.55;;;16.50;;
66751;SDS011;53663;42.676;23.238;2023-01-10T07:37:13;42.65;;;20.70;;
66751;SDS011;53663;42.676;23.238;2023-01-10T07:39:39;35.15;;;19.63;;
66751;SDS011;53663;42.676;23.238;2023-01-10T07:42:06;30.42;;;16.35;;
66751;SDS011;53663;42.676;23.238;2023-01-10T07:44:35;33.45;;;18.15;;
66751;SDS011;53663;42.676;23.238;2023-01-10T07:47:00;33.65;;;17.20;;
66751;SDS011;53663;42.676;23.238;2023-01-10T07:49:26;32.72;;;17.77;;
66751;SDS011;53663;42.676;23.238;2023-01-10T07:51:51;28.38;;;15.65;;
66751;SDS011;53663;42.676;23.238;2023-01-10T07:54:17;26.13;;;14.10;;
66751;SDS011;53663;42.676;23.238;2023-01-10T07:56:43;33.90;;;16.35;;
66751;SDS011;53663;42.676;23.238;2023-01-10T07:59:08;32.70;;;17.60;;
66751;SDS011;53663;42.676;23.238;2023-01-10T08:01:34;37.05;;;17.30;;
66751;SDS011;53663;42.676;23.238;2023-01-10T08:03:59;35.05;;;16.65;;
66751;SDS011;53663;42.676;23.238;2023-01-10T08:06:25;31.83;;;15.82;;
66751;SDS011;53663;42.676;23.238;2023-01-10T08:08:50;28.95;;;15.88;;
66751;SDS011;53663;42.676;23.238;2023-01-10T08:11:16;33.35;;;16.52;;
66751;SDS011;53663;42.676;23.238;2023-01-10T08:13:41;31.50;;;15.93;;
66751;SDS011;53663;42.676;23.238;2023-01-10T08:16:07;32.25;;;17.38;;
66751;SDS011;53663;42.676;23.238;2023-01-10T08:18:33;28.75;;;17.15;;
66751;SDS011;53663;42.676;23.238;2023-01-10T08:20:58;33.85;;;17.58;;
66751;SDS011;53663;42.676;23.238;2023-01-10T08:23:25;33.83;;;18.35;;
66751;SDS011;53663;42.676;23.238;2023-01-10T08:25:51;36.30;;;18.10;;
66751;SDS011;53663;42.676;23.238;2023-01-10T08:28:17;32.30;;;17.27;;
66751;SDS011;53663;42.676;23.238;2023-01-10T08:30:42;38.83;;;17.38;;
66751;SDS011;53663;42.676;23.238;2023-01-10T08:33:08;36.22;;;17.60;;
66751;SDS011;53663;42.676;23.238;2023-01-10T08:35:36;36.45;;;18.58;;
66751;SDS011;53663;42.676;23.238;2023-01-10T08:38:02;32.72;;;16.48;;
66751;SDS011;53663;42.676;23.238;2023-01-10T08:40:28;37.33;;;17.88;;
66751;SDS011;53663;42.676;23.238;2023-01-10T08:42:57;35.45;;;17.02;;
66751;SDS011;53663;42.676;23.238;2023-01-10T08:45:26;32.38;;;17.55;;
66751;SDS011;53663;42.676;23.238;2023-01-10T08:47:52;30.08;;;16.52;;
66751;SDS011;53663;42.676;23.238;2023-01-10T08:50:18;28.35;;;15.52;;
66751;SDS011;53663;42.676;23.238;2023-01-10T08:52:43;31.80;;;15.60;;
66751;SDS011;53663;42.676;23.238;2023-01-10T08:55:10;30.38;;;16.33;;
66751;SDS011;53663;42.676;23.238;2023-01-10T08:57:36;27.52;;;14.15;;
66751;SDS011;53663;42.676;23.238;2023-01-10T09:00:02;24.77;;;14.73;;
66751;SDS011;53663;42.676;23.238;2023-01-10T09:02:29;26.75;;;14.63;;
66751;SDS011;53663;42.676;23.238;2023-01-10T09:04:54;27.75;;;15.40;;
66751;SDS011;53663;42.676;23.238;2023-01-10T09:07:20;26.60;;;14.50;;
66751;SDS011;53663;42.676;23.238;2023-01-10T09:09:45;26.95;;;13.90;;
66751;SDS011;53663;42.676;23.238;2023-01-10T09:12:11;27.00;;;14.95;;
66751;SDS011;53663;42.676;23.238;2023-01-10T09:14:55;25.77;;;14.02;;
66751;SDS011;53663;42.676;23.238;2023-01-10T09:17:20;39.80;;;19.35;;
66751;SDS011;53663;42.676;23.238;2023-01-10T09:19:46;40.55;;;19.95;;
66751;SDS011;53663;42.676;23.238;2023-01-10T09:22:11;28.55;;;15.43;;
66751;SDS011;53663;42.676;23.238;2023-01-10T09:24:37;35.17;;;15.15;;
66751;SDS011;53663;42.676;23.238;2023-01-10T09:27:03;27.67;;;16.75;;
66751;SDS011;53663;42.676;23.238;2023-01-10T09:29:28;26.73;;;14.93;;
66751;SDS011;53663;42.676;23.238;2023-01-10T09:31:54;32.22;;;18.30;;
66751;SDS011;53663;42.676;23.238;2023-01-10T09:34:19;33.45;;;16.35;;
66751;SDS011;53663;42.676;23.238;2023-01-10T09:36:46;28.85;;;17.20;;
66751;SDS011;53663;42.676;23.238;2023-01-10T09:39:12;31.73;;;17.00;;
66751;SDS011;53663;42.676;23.238;2023-01-10T09:50:18;31.40;;;16.30;;
66751;SDS011;53663;42.676;23.238;2023-01-10T09:52:52;32.65;;;17.33;;
66751;SDS011;53663;42.676;23.238;2023-01-10T09:55:25;27.38;;;15.80;;
66751;SDS011;53663;42.676;23.238;2023-01-10T09:57:56;34.58;;;16.75;;
66751;SDS011;53663;42.676;23.238;2023-01-10T10:00:36;36.97;;;16.33;;
66751;SDS011;53663;42.676;23.238;2023-01-10T10:03:09;30.77;;;16.52;;
66751;SDS011;53663;42.676;23.238;2023-01-10T10:05:51;28.08;;;15.35;;
66751;SDS011;53663;42.676;23.238;2023-01-10T10:08:17;29.05;;;16.15;;
66751;SDS011;53663;42.676;23.238;2023-01-10T10:21:40;31.63;;;16.10;;
66751;SDS011;53663;42.676;23.238;2023-01-10T10:24:38;32.25;;;16.10;;
66751;SDS011;53663;42.676;23.238;2023-01-10T10:27:35;32.55;;;16.85;;
66751;SDS011;53663;42.676;23.238;2023-01-10T10:36:10;29.55;;;15.52;;
66751;SDS011;53663;42.676;23.238;2023-01-10T10:38:45;28.42;;;15.27;;
66751;SDS011;53663;42.676;23.238;2023-01-10T10:43:58;27.48;;;14.60;;
66751;SDS011;53663;42.676;23.238;2023-01-10T10:46:30;22.42;;;13.40;;
66751;SDS011;53663;42.676;23.238;2023-01-10T10:48:57;28.98;;;14.02;;
66751;SDS011;53663;42.676;23.238;2023-01-10T10:54:03;26.65;;;14.10;;
66751;SDS011;53663;42.676;23.238;2023-01-10T10:56:30;24.95;;;13.43;;
66751;SDS011;53663;42.676;23.238;2023-01-10T10:58:57;28.08;;;14.10;;
66751;SDS011;53663;42.676;23.238;2023-01-10T11:01:23;27.73;;;14.52;;
66751;SDS011;53663;42.676;23.238;2023-01-10T11:06:36;39.47;;;16.83;;
66751;SDS011;53663;42.676;23.238;2023-01-10T11:09:04;51.58;;;19.48;;
66751;SDS011;53663;42.676;23.238;2023-01-10T11:11:31;55.20;;;21.20;;
66751;SDS011;53663;42.676;23.238;2023-01-10T11:14:00;49.40;;;18.77;;
66751;SDS011;53663;42.676;23.238;2023-01-10T11:21:44;24.58;;;13.30;;
66751;SDS011;53663;42.676;23.238;2023-01-10T11:24:20;24.58;;;13.60;;
66751;SDS011;53663;42.676;23.238;2023-01-10T11:26:46;24.00;;;13.38;;
66751;SDS011;53663;42.676;23.238;2023-01-10T11:32:13;34.83;;;15.25;;
66751;SDS011;53663;42.676;23.238;2023-01-10T11:34:49;24.75;;;13.13;;
66751;SDS011;53663;42.676;23.238;2023-01-10T11:37:22;27.77;;;14.63;;
66751;SDS011;53663;42.676;23.238;2023-01-10T11:42:34;21.83;;;12.55;;
66751;SDS011;53663;42.676;23.238;2023-01-10T11:47:44;24.42;;;12.15;;
66751;SDS011;53663;42.676;23.238;2023-01-10T11:50:16;21.13;;;11.25;;
66751;SDS011;53663;42.676;23.238;2023-01-10T11:52:51;19.52;;;11.63;;
66751;SDS011;53663;42.676;23.238;2023-01-10T11:55:18;23.27;;;11.25;;
66751;SDS011;53663;42.676;23.238;2023-01-10T11:57:46;21.55;;;11.82;;
66751;SDS011;53663;42.676;23.238;2023-01-10T12:00:34;20.85;;;11.98;;
66751;SDS011;53663;42.676;23.238;2023-01-10T12:03:15;20.63;;;11.00;;
66751;SDS011;53663;42.676;23.238;2023-01-10T12:05:58;21.92;;;12.73;;
66751;SDS011;53663;42.676;23.238;2023-01-10T12:08:30;20.20;;;11.68;;
66751;SDS011;53663;42.676;23.238;2023-01-10T12:13:28;22.08;;;10.85;;
66751;SDS011;53663;42.676;23.238;2023-01-10T12:18:46;23.30;;;12.32;;
66751;SDS011;53663;42.676;23.238;2023-01-10T12:21:15;25.10;;;13.05;;
66751;SDS011;53663;42.676;23.238;2023-01-10T12:23:44;23.58;;;12.15;;
66751;SDS011;53663;42.676;23.238;2023-01-10T12:26:13;23.30;;;12.98;;
66751;SDS011;53663;42.676;23.238;2023-01-10T12:28:43;23.67;;;13.90;;
66751;SDS011;53663;42.676;23.238;2023-01-10T12:31:17;19.80;;;12.02;;
66751;SDS011;53663;42.676;23.238;2023-01-10T12:33:46;17.85;;;11.45;;
66751;SDS011;53663;42.676;23.238;2023-01-10T12:36:30;20.52;;;11.90;;
66751;SDS011;53663;42.676;23.238;2023-01-10T12:44:26;17.80;;;10.55;;
66751;SDS011;53663;42.676;23.238;2023-01-10T12:52:47;19.45;;;10.23;;
66751;SDS011;53663;42.676;23.238;2023-01-10T12:55:21;20.98;;;11.30;;
66751;SDS011;53663;42.676;23.238;2023-01-10T12:57:50;15.10;;;9.75;;
66751;SDS011;53663;42.676;23.238;2023-01-10T13:02:54;14.68;;;9.38;;
66751;SDS011;53663;42.676;23.238;2023-01-10T13:05:27;14.40;;;9.57;;
66751;SDS011;53663;42.676;23.238;2023-01-10T13:07:55;15.25;;;9.50;;
66751;SDS011;53663;42.676;23.238;2023-01-10T13:15:25;13.20;;;7.97;;
66751;SDS011;53663;42.676;23.238;2023-01-10T13:18:03;15.57;;;10.48;;
66751;SDS011;53663;42.676;23.238;2023-01-10T13:20:40;13.07;;;8.32;;
66751;SDS011;53663;42.676;23.238;2023-01-10T13:23:23;11.45;;;8.02;;
66751;SDS011;53663;42.676;23.238;2023-01-10T13:25:58;13.77;;;7.72;;
66751;SDS011;53663;42.676;23.238;2023-01-10T13:28:27;10.60;;;7.05;;
66751;SDS011;53663;42.676;23.238;2023-01-10T13:30:55;10.52;;;6.82;;
66751;SDS011;53663;42.676;23.238;2023-01-10T13:36:10;12.55;;;7.47;;
66751;SDS011;53663;42.676;23.238;2023-01-10T13:38:49;15.07;;;7.32;;
66751;SDS011;53663;42.676;23.238;2023-01-10T13:41:17;11.70;;;6.55;;
66751;SDS011;53663;42.676;23.238;2023-01-10T13:46:32;8.73;;;5.82;;
66751;SDS011;53663;42.676;23.238;2023-01-10T13:51:26;9.25;;;5.10;;
66751;SDS011;53663;42.676;23.238;2023-01-10T13:53:59;16.67;;;7.45;;
66751;SDS011;53663;42.676;23.238;2023-01-10T13:56:35;12.55;;;7.60;;
66751;SDS011;53663;42.676;23.238;2023-01-10T14:02:16;9.25;;;5.93;;
66751;SDS011;53663;42.676;23.238;2023-01-10T14:04:54;10.73;;;6.10;;
66751;SDS011;53663;42.676;23.238;2023-01-10T14:07:47;12.25;;;5.88;;
66751;SDS011;53663;42.676;23.238;2023-01-10T14:13:04;8.63;;;4.80;;
66751;SDS011;53663;42.676;23.238;2023-01-10T14:15:43;6.00;;;3.95;;
66751;SDS011;53663;42.676;23.238;2023-01-10T14:18:18;7.85;;;5.28;;
66751;SDS011;53663;42.676;23.238;2023-01-10T14:20:54;8.30;;;5.32;;
66751;SDS011;53663;42.676;23.238;2023-01-10T14:23:38;9.50;;;4.75;;
66751;SDS011;53663;42.676;23.238;2023-01-10T14:26:05;6.47;;;3.55;;
66751;SDS011;53663;42.676;23.238;2023-01-10T14:28:38;5.72;;;3.15;;
66751;SDS011;53663;42.676;23.238;2023-01-10T14:31:06;7.40;;;3.65;;
66751;SDS011;53663;42.676;23.238;2023-01-10T14:33:38;6.15;;;3.63;;
66751;SDS011;53663;42.676;23.238;2023-01-10T14:36:18;9.02;;;3.40;;
66751;SDS011;53663;42.676;23.238;2023-01-10T14:38:48;5.25;;;2.95;;
66751;SDS011;53663;42.676;23.238;2023-01-10T14:41:59;6.40;;;3.08;;
66751;SDS011;53663;42.676;23.238;2023-01-10T14:44:12;4.40;;;2.60;;
66751;SDS011;53663;42.676;23.238;2023-01-10T14:46:58;7.30;;;3.95;;
66751;SDS011;53663;42.676;23.238;2023-01-10T14:49:35;5.15;;;3.03;;
66751;SDS011;53663;42.676;23.238;2023-01-10T14:52:22;4.93;;;2.42;;
66751;SDS011;53663;42.676;23.238;2023-01-10T14:57:37;5.15;;;2.78;;
66751;SDS011;53663;42.676;23.238;2023-01-10T15:00:13;5.43;;;2.80;;
66751;SDS011;53663;42.676;23.238;2023-01-10T15:02:47;3.88;;;2.50;;
66751;SDS011;53663;42.676;23.238;2023-01-10T15:05:20;3.20;;;2.03;;
66751;SDS011;53663;42.676;23.238;2023-01-10T15:07:50;2.42;;;1.90;;
66751;SDS011;53663;42.676;23.238;2023-01-10T15:10:23;2.28;;;1.90;;
66751;SDS011;53663;42.676;23.238;2023-01-10T15:12:53;5.25;;;2.47;;
66751;SDS011;53663;42.676;23.238;2023-01-10T15:15:23;4.32;;;2.53;;
66751;SDS011;53663;42.676;23.238;2023-01-10T15:17:55;3.80;;;2.30;;
66751;SDS011;53663;42.676;23.238;2023-01-10T15:20:23;3.55;;;2.38;;
66751;SDS011;53663;42.676;23.238;2023-01-10T15:22:53;4.57;;;2.70;;
66751;SDS011;53663;42.676;23.238;2023-01-10T15:25:36;2.50;;;1.80;;
66751;SDS011;53663;42.676;23.238;2023-01-10T15:28:16;4.07;;;2.30;;
66751;SDS011;53663;42.676;23.238;2023-01-10T15:30:43;3.65;;;2.00;;
66751;SDS011;53663;42.676;23.238;2023-01-10T15:33:13;3.00;;;2.00;;
66751;SDS011;53663;42.676;23.238;2023-01-10T15:35:41;3.95;;;2.25;;
66751;SDS011;53663;42.676;23.238;2023-01-10T15:38:17;2.78;;;2.10;;
66751;SDS011;53663;42.676;23.238;2023-01-10T15:40:51;4.68;;;2.42;;
66751;SDS011;53663;42.676;23.238;2023-01-10T15:46:01;8.52;;;4.80;;
66751;SDS011;53663;42.676;23.238;2023-01-10T15:48:30;4.80;;;3.42;;
66751;SDS011;53663;42.676;23.238;2023-01-10T15:56:15;4.60;;;2.15;;
66751;SDS011;53663;42.676;23.238;2023-01-10T15:58:43;3.53;;;2.25;;
66751;SDS011;53663;42.676;23.238;2023-01-10T16:01:12;4.63;;;2.42;;
66751;SDS011;53663;42.676;23.238;2023-01-10T16:03:49;4.53;;;2.60;;
66751;SDS011;53663;42.676;23.238;2023-01-10T16:06:28;5.97;;;3.70;;
66751;SDS011;53663;42.676;23.238;2023-01-10T16:08:57;4.20;;;2.85;;
66751;SDS011;53663;42.676;23.238;2023-01-10T16:11:26;5.13;;;2.75;;
66751;SDS011;53663;42.676;23.238;2023-01-10T16:14:20;3.72;;;1.90;;
66751;SDS011;53663;42.676;23.238;2023-01-10T16:16:46;5.30;;;2.30;;
66751;SDS011;53663;42.676;23.238;2023-01-10T16:19:12;4.10;;;2.60;;
66751;SDS011;53663;42.676;23.238;2023-01-10T16:21:38;3.95;;;2.45;;
66751;SDS011;53663;42.676;23.238;2023-01-10T16:24:05;5.53;;;3.00;;
66751;SDS011;53663;42.676;23.238;2023-01-10T16:26:32;4.30;;;2.10;;
66751;SDS011;53663;42.676;23.238;2023-01-10T16:28:58;3.40;;;2.08;;
66751;SDS011;53663;42.676;23.238;2023-01-10T16:31:24;4.15;;;2.50;;
66751;SDS011;53663;42.676;23.238;2023-01-10T16:33:49;2.67;;;2.28;;
66751;SDS011;53663;42.676;23.238;2023-01-10T16:36:15;4.47;;;2.58;;
66751;SDS011;53663;42.676;23.238;2023-01-10T16:38:44;4.40;;;2.08;;
66751;SDS011;53663;42.676;23.238;2023-01-10T16:41:10;5.03;;;2.65;;
66751;SDS011;53663;42.676;23.238;2023-01-10T16:43:56;9.07;;;3.78;;
66751;SDS011;53663;42.676;23.238;2023-01-10T16:46:21;6.13;;;3.00;;
66751;SDS011;53663;42.676;23.238;2023-01-10T16:48:48;5.70;;;3.67;;
66751;SDS011;53663;42.676;23.238;2023-01-10T16:51:15;6.82;;;4.32;;
66751;SDS011;53663;42.676;23.238;2023-01-10T16:53:43;11.18;;;6.38;;
66751;SDS011;53663;42.676;23.238;2023-01-10T16:56:13;10.05;;;5.75;;